createdAt,value
2018-04-07T00:00:09.623Z,6.00
2018-04-07T00:02:37.229Z,6.57
2018-04-07T00:05:04.830Z,7.73
2018-04-07T00:07:32.384Z,6.30
2018-04-07T00:10:00.042Z,8.00
2018-04-07T00:12:28.400Z,9.10
2018-04-07T00:14:56.564Z,7.70
2018-04-07T00:17:24.186Z,7.57
2018-04-07T00:19:51.787Z,10.60
2018-04-07T00:22:19.378Z,9.93
2018-04-07T00:24:47.002Z,7.87
2018-04-07T00:27:14.667Z,7.80
2018-04-07T00:29:42.305Z,6.77
2018-04-07T00:32:09.915Z,8.33
2018-04-07T00:34:37.538Z,6.90
2018-04-07T00:37:05.261Z,7.43
2018-04-07T00:39:32.944Z,6.57
2018-04-07T00:42:00.554Z,9.77
2018-04-07T00:44:28.899Z,7.77
2018-04-07T00:46:56.505Z,8.73
2018-04-07T00:49:24.089Z,8.70
2018-04-07T00:51:51.675Z,8.33
2018-04-07T00:54:19.272Z,8.03
2018-04-07T00:56:46.848Z,8.13
2018-04-07T00:59:15.282Z,7.50
2018-04-07T01:01:42.880Z,7.73
2018-04-07T01:04:10.788Z,7.10
2018-04-07T01:06:38.354Z,8.20
2018-04-07T01:09:05.974Z,7.63
2018-04-07T01:11:33.595Z,7.60
2018-04-07T01:14:01.165Z,7.90
2018-04-07T01:16:28.767Z,8.10
2018-04-07T01:18:56.380Z,8.57
2018-04-07T01:21:23.992Z,7.53
2018-04-07T01:23:51.611Z,7.80
2018-04-07T01:26:19.252Z,7.40
2018-04-07T01:28:46.894Z,7.97
2018-04-07T01:31:14.460Z,8.50
2018-04-07T01:33:42.106Z,7.73
2018-04-07T01:36:09.687Z,9.07
2018-04-07T01:38:37.287Z,8.70
2018-04-07T01:41:05.618Z,8.37
2018-04-07T01:43:33.256Z,7.87
2018-04-07T01:46:00.887Z,8.53
2018-04-07T01:48:28.459Z,8.67
2018-04-07T01:50:56.836Z,10.20
2018-04-07T01:53:25.213Z,9.00
2018-04-07T01:55:52.871Z,11.57
2018-04-07T01:58:20.499Z,8.00
2018-04-07T02:00:48.073Z,8.27
2018-04-07T02:03:15.663Z,7.93
2018-04-07T02:05:43.287Z,8.60
2018-04-07T02:08:10.904Z,9.17
2018-04-07T02:10:38.512Z,8.53
2018-04-07T02:13:06.150Z,8.57
2018-04-07T02:15:33.730Z,9.53
2018-04-07T02:18:01.338Z,7.40
2018-04-07T02:20:28.900Z,9.83
2018-04-07T02:22:56.541Z,7.87
2018-04-07T02:25:24.136Z,8.13
2018-04-07T02:27:51.721Z,8.87
2018-04-07T02:30:19.311Z,8.67
2018-04-07T02:32:47.724Z,7.70
2018-04-07T02:35:15.333Z,10.43
2018-04-07T02:37:42.939Z,8.27
2018-04-07T02:40:10.535Z,8.53
2018-04-07T02:42:38.192Z,9.43
2018-04-07T02:45:05.889Z,8.40
2018-04-07T02:47:33.552Z,8.53
2018-04-07T02:50:01.154Z,10.27
2018-04-07T02:52:29.543Z,7.17
2018-04-07T02:54:57.866Z,8.30
2018-04-07T02:57:26.430Z,9.00
2018-04-07T02:59:54.087Z,7.70
2018-04-07T03:02:21.729Z,8.83
2018-04-07T03:04:50.734Z,9.30
2018-04-07T03:07:18.334Z,10.30
2018-04-07T03:09:45.940Z,8.60
2018-04-07T03:12:13.534Z,9.53
2018-04-07T03:14:41.888Z,10.20
2018-04-07T03:17:09.487Z,9.23
2018-04-07T03:19:37.113Z,8.37
2018-04-07T03:22:04.733Z,8.57
2018-04-07T03:24:33.093Z,8.57
2018-04-07T03:27:01.490Z,9.07
2018-04-07T03:29:29.071Z,8.60
2018-04-07T03:31:56.743Z,11.37
2018-04-07T03:34:24.407Z,7.37
2018-04-07T03:36:52.032Z,11.10
2018-04-07T03:39:19.615Z,9.03
2018-04-07T03:41:47.216Z,9.00
2018-04-07T03:44:14.914Z,8.23
2018-04-07T03:46:42.477Z,8.33
2018-04-07T03:49:10.130Z,9.53
2018-04-07T03:51:37.713Z,9.30
2018-04-07T03:54:05.330Z,8.03
2018-04-07T03:56:33.700Z,10.70
2018-04-07T03:59:02.027Z,9.43
2018-04-07T04:01:29.598Z,9.80
2018-04-07T04:03:57.222Z,10.33
2018-04-07T04:06:24.877Z,9.80
2018-04-07T04:08:53.207Z,8.83
2018-04-07T04:11:20.859Z,9.60
2018-04-07T04:13:48.501Z,9.70
2018-04-07T04:16:16.091Z,9.47
2018-04-07T04:18:43.709Z,9.00
2018-04-07T04:21:12.193Z,8.97
2018-04-07T04:23:39.834Z,8.80
2018-04-07T04:26:08.236Z,10.87
2018-04-07T04:28:36.648Z,10.10
2018-04-07T04:31:04.282Z,9.03
2018-04-07T04:33:31.872Z,11.13
2018-04-07T04:35:59.526Z,9.87
2018-04-07T04:38:27.136Z,8.50
2018-04-07T04:40:54.754Z,9.87
2018-04-07T04:43:23.138Z,10.03
2018-04-07T04:45:50.756Z,8.87
2018-04-07T04:48:18.369Z,9.17
2018-04-07T04:50:46.547Z,8.53
2018-04-07T04:53:14.210Z,10.30
2018-04-07T04:55:42.659Z,8.30
2018-04-07T04:58:10.247Z,9.27
2018-04-07T05:00:38.823Z,10.13
2018-04-07T05:03:06.428Z,8.60
2018-04-07T05:05:35.073Z,9.70
2018-04-07T05:08:02.646Z,10.10
2018-04-07T05:10:30.307Z,9.40
2018-04-07T05:12:57.881Z,10.93
2018-04-07T05:15:25.519Z,9.87
2018-04-07T05:17:53.205Z,9.30
2018-04-07T05:20:20.858Z,10.90
2018-04-07T05:22:48.530Z,9.70
2018-04-07T05:25:16.092Z,9.87
2018-04-07T05:27:44.142Z,9.53
2018-04-07T05:30:11.716Z,8.97
2018-04-07T05:32:39.327Z,9.80
2018-04-07T05:35:06.924Z,9.10
2018-04-07T05:37:35.271Z,15.27
2018-04-07T05:40:02.889Z,10.93
2018-04-07T05:42:30.584Z,10.30
2018-04-07T05:44:58.221Z,11.83
2018-04-07T05:47:25.819Z,10.20
2018-04-07T05:49:53.418Z,12.60
2018-04-07T05:52:21.034Z,10.83
2018-04-07T05:54:48.651Z,9.50
2018-04-07T05:57:16.245Z,10.93
2018-04-07T05:59:43.854Z,10.33
2018-04-07T06:02:11.490Z,10.37
2018-04-07T06:04:39.151Z,10.17
2018-04-07T06:07:06.816Z,10.77
2018-04-07T06:09:34.413Z,11.47
2018-04-07T06:12:02.034Z,11.63
2018-04-07T06:14:29.668Z,10.37
2018-04-07T06:16:58.057Z,12.30
2018-04-07T06:19:26.418Z,10.93
2018-04-07T06:21:54.024Z,9.13
2018-04-07T06:24:22.392Z,10.27
2018-04-07T06:26:50.667Z,10.10
2018-04-07T06:29:18.289Z,10.20
2018-04-07T06:31:45.879Z,10.17
2018-04-07T06:34:13.489Z,9.57
2018-04-07T06:36:41.168Z,10.47
2018-04-07T06:39:08.793Z,9.63
2018-04-07T06:41:36.415Z,10.37
2018-04-07T06:44:04.971Z,10.13
2018-04-07T06:46:32.576Z,10.50
2018-04-07T06:49:00.165Z,9.60
2018-04-07T06:51:27.837Z,9.77
2018-04-07T06:53:55.488Z,10.50
2018-04-07T06:56:23.105Z,10.77
2018-04-07T06:58:50.756Z,10.93
2018-04-07T07:01:19.235Z,11.60
2018-04-07T07:03:46.822Z,10.33
2018-04-07T07:06:14.928Z,11.03
2018-04-07T07:08:42.568Z,11.70
2018-04-07T07:11:10.926Z,10.33
2018-04-07T07:13:38.543Z,10.47
2018-04-07T07:16:06.192Z,10.17
2018-04-07T07:18:33.786Z,12.53
2018-04-07T07:21:01.441Z,11.73
2018-04-07T07:23:29.183Z,13.87
2018-04-07T07:25:57.561Z,11.27
2018-04-07T07:28:25.923Z,14.67
2018-04-07T07:30:53.541Z,9.53
2018-04-07T07:33:21.955Z,13.70
2018-04-07T07:35:49.657Z,11.53
2018-04-07T07:38:18.052Z,11.93
2018-04-07T07:40:45.714Z,11.07
2018-04-07T07:43:14.079Z,10.83
2018-04-07T07:45:41.656Z,12.47
2018-04-07T07:48:10.062Z,13.47
2018-04-07T07:50:37.702Z,10.27
2018-04-07T07:53:06.177Z,12.07
2018-04-07T07:55:34.676Z,12.03
2018-04-07T07:58:03.043Z,10.80
2018-04-07T08:00:30.645Z,11.73
2018-04-07T08:02:58.282Z,12.50
2018-04-07T08:05:26.683Z,12.27
2018-04-07T08:07:55.013Z,13.77
2018-04-07T08:10:22.595Z,11.63
2018-04-07T08:12:50.996Z,12.77
2018-04-07T08:15:19.351Z,12.07
2018-04-07T08:17:46.986Z,12.90
2018-04-07T08:20:14.605Z,11.30
2018-04-07T08:22:43.128Z,11.33
2018-04-07T08:25:10.748Z,13.60
2018-04-07T08:27:38.467Z,13.57
2018-04-07T08:30:06.070Z,10.33
2018-04-07T08:32:33.706Z,16.17
2018-04-07T08:35:01.422Z,13.80
2018-04-07T08:37:29.850Z,12.23
2018-04-07T08:39:57.481Z,11.50
2018-04-07T08:42:25.164Z,15.23
2018-04-07T08:44:52.827Z,12.43
2018-04-07T08:47:20.466Z,12.23
2018-04-07T08:49:48.126Z,13.37
2018-04-07T08:52:15.731Z,12.40
2018-04-07T08:54:43.341Z,11.33
2018-04-07T08:57:11.486Z,12.47
2018-04-07T08:59:39.115Z,12.43
2018-04-07T09:02:08.878Z,13.67
2018-04-07T09:04:37.065Z,14.37
2018-04-07T09:07:04.742Z,15.43
2018-04-07T09:09:32.416Z,11.63
2018-04-07T09:12:01.133Z,12.23
2018-04-07T09:14:29.585Z,12.87
2018-04-07T09:16:57.279Z,15.60
2018-04-07T09:19:26.611Z,11.43
2018-04-07T09:21:55.270Z,12.13
2018-04-07T09:24:22.916Z,12.13
2018-04-07T09:26:51.923Z,13.40
2018-04-07T09:29:21.360Z,12.57
2018-04-07T09:31:49.768Z,15.30
2018-04-07T09:34:19.354Z,14.40
2018-04-07T09:36:47.334Z,15.53
2018-04-07T09:39:15.017Z,13.43
2018-04-07T09:41:43.632Z,14.27
2018-04-07T09:44:11.207Z,13.27
2018-04-07T09:46:38.857Z,14.60
2018-04-07T09:49:06.568Z,13.70
2018-04-07T09:51:34.326Z,13.47
2018-04-07T09:54:02.085Z,13.73
2018-04-07T09:56:29.724Z,12.57
2018-04-07T09:58:58.702Z,15.40
2018-04-07T10:01:30.168Z,14.70
2018-04-07T10:03:59.128Z,13.90
2018-04-07T10:06:27.489Z,14.33
2018-04-07T10:08:56.796Z,13.93
2018-04-07T10:11:24.488Z,15.17
2018-04-07T10:13:52.349Z,14.63
2018-04-07T10:16:20.841Z,15.27
2018-04-07T10:18:49.487Z,14.90
2018-04-07T10:21:17.092Z,19.20
2018-04-07T10:23:44.679Z,14.70
2018-04-07T10:26:12.317Z,13.80
2018-04-07T10:28:40.004Z,14.90
2018-04-07T10:31:07.775Z,15.73
2018-04-07T10:33:35.508Z,16.27
2018-04-07T10:36:03.194Z,14.77
2018-04-07T10:38:30.784Z,15.60
2018-04-07T10:40:59.909Z,18.00
2018-04-07T10:43:27.518Z,19.00
2018-04-07T10:45:56.493Z,17.83
2018-04-07T10:48:24.995Z,15.63
2018-04-07T10:50:54.744Z,17.57
2018-04-07T10:53:24.243Z,15.90
2018-04-07T10:55:54.586Z,17.43
2018-04-07T10:58:22.209Z,16.67
2018-04-07T11:00:49.853Z,16.70
2018-04-07T11:03:19.331Z,18.03
2018-04-07T11:05:47.203Z,16.67
2018-04-07T11:08:19.289Z,15.93
2018-04-07T11:10:46.966Z,17.67
2018-04-07T11:13:14.692Z,17.40
2018-04-07T11:15:45.064Z,17.03
2018-04-07T11:18:12.665Z,18.27
2018-04-07T11:20:40.396Z,17.37
2018-04-07T11:23:09.916Z,17.83
2018-04-07T11:25:37.590Z,19.80
2018-04-07T11:28:05.235Z,18.43
2018-04-07T11:30:33.016Z,19.03
2018-04-07T11:33:01.439Z,19.40
2018-04-07T11:35:29.979Z,18.73
2018-04-07T11:37:59.331Z,16.57
2018-04-07T11:40:29.515Z,17.90
2018-04-07T11:42:57.245Z,18.67
2018-04-07T11:45:25.217Z,19.37
2018-04-07T11:47:52.873Z,16.03
2018-04-07T11:50:21.281Z,16.67
2018-04-07T11:52:49.038Z,19.60
2018-04-07T11:55:17.047Z,17.50
2018-04-07T11:57:46.234Z,17.83
2018-04-07T12:00:13.859Z,18.53
2018-04-07T12:02:42.247Z,21.13
2018-04-07T12:05:11.286Z,18.27
2018-04-07T12:07:40.852Z,16.70
2018-04-07T12:10:10.093Z,19.60
2018-04-07T12:12:37.712Z,17.23
2018-04-07T12:15:06.065Z,17.47
2018-04-07T12:17:33.727Z,16.70
2018-04-07T12:20:01.356Z,14.47
2018-04-07T12:22:29.382Z,16.63
2018-04-07T12:24:58.247Z,17.63
2018-04-07T12:27:30.671Z,17.47
2018-04-07T12:29:59.025Z,14.03
2018-04-07T12:32:28.018Z,14.60
2018-04-07T12:34:55.836Z,19.17
2018-04-07T12:37:23.543Z,15.63
2018-04-07T12:39:51.315Z,16.93
2018-04-07T12:42:18.928Z,16.27
2018-04-07T12:44:47.898Z,14.50
2018-04-07T12:47:15.622Z,15.27
2018-04-07T12:49:43.283Z,15.83
2018-04-07T12:52:11.152Z,16.17
2018-04-07T12:54:38.778Z,14.73
2018-04-07T12:57:06.543Z,9.90
2018-04-07T12:59:34.187Z,13.23
2018-04-07T13:02:03.445Z,13.50
2018-04-07T13:04:33.136Z,12.60
2018-04-07T13:07:01.942Z,11.57
2018-04-07T13:09:32.147Z,10.77
2018-04-07T13:12:03.348Z,11.93
2018-04-07T13:14:31.169Z,11.60
2018-04-07T13:17:01.807Z,11.87
2018-04-07T13:19:30.343Z,11.73
2018-04-07T13:21:57.907Z,11.07
2018-04-07T13:24:30.723Z,12.50
2018-04-07T13:27:01.174Z,11.47
2018-04-07T13:29:29.795Z,10.63
2018-04-07T13:31:57.525Z,12.43
2018-04-07T13:34:27.265Z,11.40
2018-04-07T13:36:56.916Z,10.73
2018-04-07T13:39:25.938Z,14.20
2018-04-07T13:41:54.491Z,13.27
2018-04-07T13:44:23.466Z,13.23
2018-04-07T13:46:52.775Z,9.60
2018-04-07T13:49:21.435Z,10.73
2018-04-07T13:51:49.542Z,12.47
2018-04-07T13:54:18.114Z,9.27
2018-04-07T13:56:45.914Z,7.37
2018-04-07T13:59:15.056Z,9.73
2018-04-07T14:01:42.763Z,10.83
2018-04-07T14:04:12.010Z,11.33
2018-04-07T14:06:39.663Z,12.80
2018-04-07T14:09:08.211Z,9.07
2018-04-07T14:11:41.584Z,7.83
2018-04-07T14:14:09.267Z,8.80
2018-04-07T14:16:37.564Z,7.97
2018-04-07T14:19:06.262Z,8.53
2018-04-07T14:21:35.094Z,7.17
2018-04-07T14:24:04.917Z,6.33
2018-04-07T14:26:33.475Z,11.00
2018-04-07T14:29:01.846Z,7.00
2018-04-07T14:31:30.347Z,8.20
2018-04-07T14:33:59.158Z,11.07
2018-04-07T14:36:29.238Z,8.53
2018-04-07T14:38:57.038Z,10.47
2018-04-07T14:41:25.528Z,7.10
2018-04-07T14:43:54.819Z,9.30
2018-04-07T14:46:25.381Z,7.23
2018-04-07T14:48:54.121Z,8.77
2018-04-07T14:51:23.153Z,7.00
2018-04-07T14:53:52.408Z,10.33
2018-04-07T14:56:22.211Z,10.30
2018-04-07T14:58:50.823Z,9.53
2018-04-07T15:01:21.660Z,7.43
2018-04-07T15:03:50.335Z,8.27
2018-04-07T15:06:19.305Z,9.80
2018-04-07T15:08:48.400Z,8.03
2018-04-07T15:11:17.914Z,8.67
2018-04-07T15:13:47.689Z,9.47
2018-04-07T15:16:17.307Z,9.63
2018-04-07T15:18:45.666Z,7.63
2018-04-07T15:21:13.913Z,8.70
2018-04-07T15:23:41.704Z,9.40
2018-04-07T15:26:13.317Z,7.10
2018-04-07T15:28:41.523Z,8.70
2018-04-07T15:31:09.258Z,9.27
2018-04-07T15:33:40.188Z,8.23
2018-04-07T15:36:11.367Z,8.33
2018-04-07T15:38:38.989Z,9.33
2018-04-07T15:41:08.146Z,8.93
2018-04-07T15:43:37.050Z,9.00
2018-04-07T15:46:06.575Z,6.83
2018-04-07T15:48:34.193Z,9.47
2018-04-07T15:51:04.994Z,7.73
2018-04-07T15:53:32.653Z,9.70
2018-04-07T15:56:00.328Z,8.03
2018-04-07T15:58:31.755Z,12.13
2018-04-07T16:01:00.184Z,9.53
2018-04-07T16:03:30.774Z,11.37
2018-04-07T16:05:58.408Z,10.70
2018-04-07T16:08:27.262Z,8.17
2018-04-07T16:10:57.106Z,11.17
2018-04-07T16:13:26.001Z,7.70
2018-04-07T16:15:53.823Z,10.03
2018-04-07T16:18:25.279Z,11.23
2018-04-07T16:20:52.980Z,12.23
2018-04-07T16:23:20.666Z,9.43
2018-04-07T16:25:50.251Z,10.67
2018-04-07T16:28:19.830Z,9.57
2018-04-07T16:30:47.551Z,9.13
2018-04-07T16:33:24.224Z,7.50
2018-04-07T16:35:53.591Z,6.23
2018-04-07T16:38:22.338Z,8.47
2018-04-07T16:40:50.044Z,7.77
2018-04-07T16:43:19.450Z,8.63
2018-04-07T16:45:47.409Z,7.50
2018-04-07T16:50:49.504Z,8.03
2018-04-07T16:53:18.294Z,7.40
2018-04-07T16:55:45.988Z,9.03
2018-04-07T16:58:18.735Z,8.13
2018-04-07T17:00:46.799Z,10.50
2018-04-07T17:03:15.421Z,10.30
2018-04-07T17:05:43.459Z,6.87
2018-04-07T17:08:13.815Z,6.47
2018-04-07T17:10:42.300Z,9.50
2018-04-07T17:13:10.902Z,8.63
2018-04-07T17:15:40.339Z,7.97
2018-04-07T17:18:11.572Z,7.40
2018-04-07T17:20:41.609Z,10.53
2018-04-07T17:25:42.861Z,10.23
2018-04-07T17:28:12.582Z,6.17
2018-04-07T17:30:43.398Z,10.10
2018-04-07T17:33:12.202Z,9.47
2018-04-07T17:35:40.838Z,10.30
2018-04-07T17:38:09.527Z,8.90
2018-04-07T17:40:39.977Z,8.20
2018-04-07T17:43:08.008Z,13.30
2018-04-07T17:45:36.635Z,8.13
2018-04-07T17:48:05.357Z,13.63
2018-04-07T17:50:35.309Z,9.77
2018-04-07T17:53:05.758Z,9.73
2018-04-07T17:55:35.298Z,10.13
2018-04-07T17:58:04.701Z,9.73
2018-04-07T18:00:33.378Z,8.50
2018-04-07T18:03:01.884Z,11.07
2018-04-07T18:05:30.682Z,9.27
2018-04-07T18:07:59.616Z,10.70
2018-04-07T18:10:27.462Z,7.87
2018-04-07T18:12:55.509Z,7.33
2018-04-07T18:15:23.398Z,8.50
2018-04-07T18:17:51.288Z,24.20
2018-04-07T18:20:19.851Z,49.13
2018-04-07T18:22:47.883Z,28.13
2018-04-07T18:25:16.047Z,11.67
2018-04-07T18:27:43.953Z,11.73
2018-04-07T18:30:11.667Z,11.70
2018-04-07T18:32:40.494Z,8.40
2018-04-07T18:35:08.254Z,7.67
2018-04-07T18:37:36.817Z,6.50
2018-04-07T18:40:04.575Z,8.40
2018-04-07T18:42:32.359Z,7.83
2018-04-07T18:45:00.860Z,10.03
2018-04-07T18:47:28.628Z,5.70
2018-04-07T18:49:56.608Z,13.33
2018-04-07T18:52:24.490Z,8.07
2018-04-07T18:54:54.293Z,6.80
2018-04-07T18:57:23.622Z,13.30
2018-04-07T18:59:53.552Z,7.47
2018-04-07T19:02:22.391Z,6.80
2018-04-07T19:04:50.754Z,8.70
2018-04-07T19:07:19.333Z,8.90
2018-04-07T19:09:47.280Z,10.43
2018-04-07T19:12:15.362Z,7.97
2018-04-07T19:14:43.596Z,6.37
2018-04-07T19:17:13.347Z,8.70
2018-04-07T19:19:41.572Z,7.00
2018-04-07T19:22:09.586Z,7.50
2018-04-07T19:24:38.468Z,9.17
2018-04-07T19:27:06.162Z,10.63
2018-04-07T19:29:35.672Z,8.70
2018-04-07T19:32:04.726Z,8.83
2018-04-07T19:34:35.354Z,6.83
2018-04-07T19:37:03.323Z,9.50
2018-04-07T19:39:33.385Z,10.00
2018-04-07T19:42:02.567Z,11.40
2018-04-07T19:44:30.452Z,9.40
2018-04-07T19:47:02.854Z,8.27
2018-04-07T19:49:32.255Z,8.43
2018-04-07T19:52:02.650Z,12.57
2018-04-07T19:54:30.689Z,11.77
2018-04-07T19:56:59.501Z,8.20
2018-04-07T19:59:28.184Z,11.97
2018-04-07T20:01:56.058Z,13.13
2018-04-07T20:04:24.722Z,10.60
2018-04-07T20:06:52.604Z,10.27
2018-04-07T20:09:20.546Z,13.83
2018-04-07T20:11:48.354Z,14.70
2018-04-07T20:14:17.872Z,12.43
2018-04-07T20:16:48.272Z,14.17
2018-04-07T20:19:18.304Z,11.87
2018-04-07T20:21:46.155Z,15.80
2018-04-07T20:24:15.235Z,10.37
2018-04-07T20:26:43.853Z,11.33
2018-04-07T20:29:11.981Z,10.60
2018-04-07T20:31:40.791Z,11.10
2018-04-07T20:34:09.423Z,13.13
2018-04-07T20:36:37.264Z,16.47
2018-04-07T20:39:07.525Z,17.73
2018-04-07T20:41:35.574Z,19.37
2018-04-07T20:44:06.358Z,25.30
2018-04-07T20:46:34.218Z,25.60
2018-04-07T20:49:02.070Z,27.70
2018-04-07T20:51:29.945Z,29.47
2018-04-07T20:53:57.722Z,33.30
2018-04-07T20:56:27.027Z,32.60
2018-04-07T20:58:55.856Z,32.67
2018-04-07T21:01:24.551Z,36.63
2018-04-07T21:03:53.176Z,29.77
2018-04-07T21:06:20.998Z,21.27
2018-04-07T21:08:50.484Z,21.37
2018-04-07T21:11:22.117Z,23.37
2018-04-07T21:13:51.496Z,18.57
2018-04-07T21:16:21.284Z,14.17
2018-04-07T21:18:50.484Z,14.83
2018-04-07T21:21:20.313Z,13.73
2018-04-07T21:23:49.105Z,14.70
2018-04-07T21:26:19.202Z,12.97
2018-04-07T21:28:47.160Z,16.00
2018-04-07T21:31:17.016Z,14.87
2018-04-07T21:33:44.984Z,15.00
2018-04-07T21:36:12.934Z,14.30
2018-04-07T21:38:42.498Z,10.80
2018-04-07T21:41:13.234Z,11.07
2018-04-07T21:43:41.741Z,12.87
2018-04-07T21:46:09.621Z,11.27
2018-04-07T21:48:37.595Z,13.07
2018-04-07T21:51:05.709Z,11.33
2018-04-07T21:53:34.059Z,10.27
2018-04-07T21:56:01.879Z,13.47
2018-04-07T21:58:31.541Z,13.33
2018-04-07T22:00:59.373Z,10.90
2018-04-07T22:03:29.739Z,13.33
2018-04-07T22:05:59.040Z,11.23
2018-04-07T22:08:27.601Z,12.57
2018-04-07T22:10:55.431Z,14.33
2018-04-07T22:15:58.854Z,13.53
2018-04-07T22:18:28.286Z,14.60
2018-04-07T22:20:57.146Z,14.93
2018-04-07T22:23:25.036Z,15.40
2018-04-07T22:25:56.270Z,15.17
2018-04-07T22:28:25.210Z,16.87
2018-04-07T22:30:53.098Z,12.13
2018-04-07T22:33:21.491Z,16.17
2018-04-07T22:35:52.803Z,12.47
2018-04-07T22:38:21.585Z,10.97
2018-04-07T22:40:49.580Z,14.47
2018-04-07T22:43:18.425Z,12.57
2018-04-07T22:45:46.428Z,12.27
2018-04-07T22:48:14.323Z,17.20
2018-04-07T22:50:43.009Z,11.70
2018-04-07T22:53:12.830Z,11.53
2018-04-07T22:55:42.559Z,14.23
2018-04-07T22:58:12.205Z,15.27
2018-04-07T23:00:40.388Z,14.97
2018-04-07T23:03:09.362Z,13.20
2018-04-07T23:05:41.484Z,16.03
2018-04-07T23:08:09.376Z,12.50
2018-04-07T23:10:38.786Z,15.23
2018-04-07T23:13:07.428Z,16.93
2018-04-07T23:15:36.838Z,14.67
2018-04-07T23:18:05.308Z,15.73
2018-04-07T23:20:34.160Z,15.10
2018-04-07T23:23:08.902Z,16.03
2018-04-07T23:25:36.672Z,11.70
2018-04-07T23:28:05.669Z,17.83
2018-04-07T23:30:34.959Z,11.70
2018-04-07T23:33:03.817Z,13.17
2018-04-07T23:35:31.613Z,12.60
2018-04-07T23:38:00.134Z,15.50
2018-04-07T23:40:28.565Z,12.17
2018-04-07T23:42:57.112Z,15.90
2018-04-07T23:45:24.978Z,13.17
2018-04-07T23:47:52.935Z,14.20
2018-04-07T23:50:21.614Z,14.33
2018-04-07T23:52:49.390Z,12.90
2018-04-07T23:55:17.960Z,12.93
2018-04-07T23:57:52.615Z,13.30
